Muenster, Germany

1:39 PM CEST on September 26, 2016 (GMT +0200)
Munster-Osnabruck

Weather History for EDDG - October, 2013

Change the Weather History Date:

Thursday, October 3, 2013

  Actual Average Record
Temperature  
Mean Temperature 51 °F -  
Max Temperature 60 °F 59 °F 75 °F (2010)
Min Temperature 42 °F 46 °F 37 °F (1996)
Degree Days  
Heating Degree Days 14    
Growing Degree Days 1 (Base 50)    
Moisture  
Dew Point 32 °F    
Average Humidity 45    
Maximum Humidity 66    
Minimum Humidity 21    
Precipitation  
Precipitation 0.00 in - - ()
Sea Level Pressure  
Sea Level Pressure 30.10 in    
Wind  
Wind Speed 8 mph ()    
Max Wind Speed 13 mph    
Max Gust Speed 22 mph    
Visibility 19.0 miles    
Events      
Averages and records for this station are not official NWS values.
T = Trace of Precipitation, MM = Missing Value Source: Averaged Metar Reports

Daily Weather History Graph

Daily Weather History Graph

Search for Another Location

Airport or City:

Trip Planner

Search our weather history database for the weather conditions in past years. The results will help you decide how hot, cold, wet, or windy it might be!

Date:

Astronomy

Oct. 03, 2013 Rise Set
Actual Time 7:33 AM CEST 7:01 PM CEST
Civil Twilight 6:59 AM CEST 7:35 PM CEST
Nautical Twilight 6:20 AM CEST 8:14 PM CEST
Astronomical Twilight 5:40 AM CEST 8:54 PM CEST
Moon 5:42 AM CEST (10/3) 6:06 PM CEST (10/3)
Length of Visible Light 12h 35m
Length of Day
11h 28m
Waning Crescent, 3% of the Moon is Illuminated
Oct 3
Waning Crescent
Oct 5
New
Oct 12
First Quarter
Oct 19
Full
Oct 27
Last Quarter

Hourly Weather History & Observations

Time (CEST) Temp. Windchill Dew Point Humidity Pressure Visibility Wind Dir Wind Speed Gust Speed Precip Events Conditions
12:00 AM 49 °F - 31 °F 38% 30.18 in 25 mi ESE 6.7 mph - -   Clear
12:20 AM 48.2 °F - 32.0 °F 54% 30.15 in - ESE 6.9 mph - N/A   Clear
12:50 AM 48.2 °F - 32.0 °F 54% 30.15 in - East 6.9 mph - N/A   Clear
1:00 AM 48 °F - 31 °F 40% 30.18 in 25 mi ESE 6.7 mph - -  
1:20 AM 48.2 °F - 32.0 °F 54% 30.15 in - ESE 6.9 mph - N/A   Clear
1:50 AM 46.4 °F 42.9 °F 32.0 °F 57% 30.15 in - East 6.9 mph - N/A   Clear
2:00 AM 47 °F - 32 °F 43% 30.18 in 25 mi ESE 4.5 mph - -  
2:20 AM 46.4 °F 42.9 °F 32.0 °F 57% 30.15 in - East 6.9 mph - N/A   Clear
2:50 AM 46.4 °F 42.9 °F 32.0 °F 57% 30.15 in - East 6.9 mph - N/A   Clear
3:00 AM 46 °F - 32 °F 46% 30.17 in 25 mi ESE 6.7 mph - -  
3:20 AM 44.6 °F 40.7 °F 32.0 °F 61% 30.15 in - East 6.9 mph - N/A   Clear
3:50 AM 44.6 °F 40.2 °F 32.0 °F 61% 30.15 in - East 8.1 mph - N/A   Clear
4:00 AM 45 °F - 32 °F 49% 30.17 in 25 mi East 6.7 mph - -  
4:20 AM 44.6 °F 40.2 °F 32.0 °F 61% 30.12 in - East 8.1 mph - N/A   Clear
4:50 AM 44.6 °F 40.2 °F 32.0 °F 61% 30.12 in - East 8.1 mph - N/A   Clear
5:00 AM 44 °F - 32 °F 51% 30.16 in 25 mi East 4.5 mph - -  
5:20 AM 44.6 °F 40.2 °F 32.0 °F 61% 30.12 in - East 8.1 mph - N/A   Clear
5:50 AM 42.8 °F 37.5 °F 32.0 °F 66% 30.12 in - East 9.2 mph - N/A   Clear
6:00 AM 43 °F - 32 °F 54% 30.14 in 25 mi East 6.7 mph - -  
6:20 AM 42.8 °F 38.0 °F 32.0 °F 66% 30.12 in - East 8.1 mph - N/A   Clear
6:50 AM 42.8 °F 38.6 °F 32.0 °F 66% 30.12 in - East 6.9 mph - N/A   Clear
7:00 AM 43 °F - 32 °F 54% 30.15 in 25 mi East 4.5 mph - -   Clear
7:20 AM 42.8 °F 38.0 °F 32.0 °F 66% 30.12 in - East 8.1 mph - N/A   Clear
7:50 AM 42.8 °F 38.0 °F 32.0 °F 66% 30.12 in - East 8.1 mph - N/A   Clear
8:00 AM 43 °F - 32 °F 55% 30.15 in 28 mi ESE 6.7 mph - -   Clear
8:20 AM 42.8 °F 37.0 °F 32.0 °F 66% 30.12 in - East 10.4 mph - N/A   Clear
8:50 AM 44.6 °F 39.2 °F 32.0 °F 61% 30.12 in - East 10.4 mph - N/A   Clear
9:00 AM 45 °F - 32 °F 49% 30.15 in 31 mi East 8.9 mph - -   Clear
9:20 AM 46.4 °F 41.5 °F 32.0 °F 57% 30.12 in - East 10.4 mph - N/A   Clear
9:50 AM 48.2 °F - 32.0 °F 54% 30.12 in - ESE 9.2 mph - N/A   Clear
10:00 AM 47 °F - 32 °F 45% 30.15 in 31 mi ESE 8.9 mph - -   Clear
10:20 AM 50.0 °F - 32.0 °F 50% 30.12 in - ESE 11.5 mph - N/A   Clear
10:50 AM 50.0 °F - 32.0 °F 50% 30.12 in - ESE 10.4 mph - N/A   Clear
11:00 AM 50 °F - 31 °F 36% 30.14 in 28 mi ESE 8.9 mph - -   Clear
11:20 AM 51.8 °F - 32.0 °F 47% 30.12 in - ESE 10.4 mph - N/A   Clear
11:50 AM 53.6 °F - 30.2 °F 41% 30.12 in - East 12.7 mph - N/A   Clear
12:00 PM 53 °F - 30 °F 29% 30.13 in 28 mi ESE 11.2 mph - -   Clear
12:20 PM 55.4 °F - 30.2 °F 38% 30.09 in - ESE 11.5 mph - N/A   Clear
12:50 PM 55.4 °F - 30.2 °F 38% 30.09 in - ESE 10.4 mph - N/A   Clear
1:00 PM 55 °F - 30 °F 26% 30.13 in 28 mi East 8.9 mph - -   Clear
1:20 PM 57.2 °F - 30.2 °F 36% 30.09 in - ESE 10.4 mph - N/A   Clear
1:50 PM 57.2 °F - 30.2 °F 36% 30.09 in - East 11.5 mph - N/A   Clear
2:00 PM 58 °F - 31 °F 23% 30.10 in 28 mi ESE 8.9 mph - -   Clear
2:20 PM 57.2 °F - 30.2 °F 36% 30.09 in - ESE 10.4 mph - N/A   Clear
2:50 PM 59.0 °F - 30.2 °F 34% 30.09 in - ESE 10.4 mph 21.9 mph N/A   Clear
3:00 PM 59 °F - 30 °F 21% 30.10 in 25 mi ESE 11.2 mph - -   Clear
3:20 PM 59.0 °F - 30.2 °F 34% 30.06 in - East 11.5 mph - N/A   Clear
3:50 PM 59.0 °F - 30.2 °F 34% 30.06 in - East 12.7 mph - N/A   Clear
4:00 PM 60 °F - 31 °F 21% 30.09 in 25 mi ESE 8.9 mph - -   Clear
4:20 PM 60.8 °F - 32.0 °F 34% 30.06 in - East 11.5 mph - N/A   Clear
4:50 PM 60.8 °F - 32.0 °F 34% 30.06 in - East 10.4 mph - N/A   Clear
5:00 PM 60 °F - 32 °F 22% 30.07 in 25 mi ESE 6.7 mph - -   Clear
5:20 PM 59.0 °F - 32.0 °F 36% 30.04 in - East 12.7 mph - N/A   Clear
5:50 PM 59.0 °F - 32.0 °F 36% 30.04 in - East 11.5 mph - N/A   Clear
6:00 PM 59 °F - 32 °F 24% 30.06 in 25 mi ESE 8.9 mph - -   Clear
6:20 PM 57.2 °F - 33.8 °F 41% 30.04 in - East 10.4 mph - N/A   Clear
6:50 PM 57.2 °F - 33.8 °F 41% 30.04 in - East 10.4 mph - N/A   Clear
7:00 PM 57 °F - 34 °F 30% 30.06 in 25 mi East 6.7 mph - -   Clear
7:20 PM 57.2 °F - 33.8 °F 41% 30.04 in - East 10.4 mph - N/A   Clear
7:50 PM 55.4 °F - 33.8 °F 44% 30.04 in - East 9.2 mph - N/A   Clear
8:00 PM 56 °F - 33 °F 30% 30.05 in 19 mi ESE 8.9 mph - -   Clear
8:20 PM 55.4 °F - 33.8 °F 44% 30.04 in - ESE 10.4 mph - N/A   Clear
8:50 PM 55.4 °F - 33.8 °F 44% 30.04 in - ESE 9.2 mph - N/A   Clear
9:00 PM 56 °F - 34 °F 31% 30.06 in 19 mi ESE 8.9 mph - -   Clear
9:20 PM 55.4 °F - 33.8 °F 44% 30.04 in - ESE 9.2 mph - N/A   Clear
9:50 PM 55.4 °F - 33.8 °F 44% 30.04 in - ESE 6.9 mph - N/A   Clear
10:00 PM 55 °F - 34 °F 32% 30.05 in 19 mi SE 6.7 mph - -   Clear
10:20 PM 53.6 °F - 33.8 °F 47% 30.04 in - ESE 6.9 mph - N/A   Clear
10:50 PM 53.6 °F - 33.8 °F 47% 30.04 in - ESE 6.9 mph - N/A   Clear
11:00 PM 54 °F - 33 °F 32% 30.06 in 19 mi ESE 6.7 mph - -   Clear
11:20 PM 53.6 °F - 33.8 °F 47% 30.04 in - ESE 5.8 mph - N/A   Clear
11:50 PM 53.6 °F - 33.8 °F 47% 30.04 in - ESE 5.8 mph - N/A   Clear